Time;durP1;ratioP1;P1;durP2;ratioP2;P2;SDS_P1;SDS_P2;PMS_P1;PMS_P2;Temp;Humidity;BMP_temperature;BMP_pressure;BME280_temperature;BME280_humidity;BME280_pressure;Samples;Min_cycle;Max_cycle;Signal;HPM_P1;HPM_P2
2022/07/12 00:02:19;;;;;;;2.90;2.70;;;;;;;;;;4992394;28;20229;-85
2022/07/12 00:04:47;;;;;;;2.90;2.70;;;;;;;;;;5014128;28;20720;-85
2022/07/12 00:07:12;;;;;;;2.57;2.37;;;;;;;;;;5014335;28;20221;-84
2022/07/12 00:09:40;;;;;;;2.63;2.43;;;;;;;;;;5014526;28;20221;-83
2022/07/12 00:12:09;;;;;;;2.93;2.73;;;;;;;;;;5030328;28;20223;-83
2022/07/12 00:14:34;;;;;;;3.03;2.83;;;;;;;;;;4997838;28;20304;-84
2022/07/12 00:17:04;;;;;;;3.03;2.83;;;;;;;;;;4997539;28;20225;-84
2022/07/12 00:19:32;;;;;;;2.83;2.63;;;;;;;;;;5013484;28;20221;-85
2022/07/12 00:21:58;;;;;;;3.10;2.80;;;;;;;;;;5013310;28;20224;-84
2022/07/12 00:24:25;;;;;;;3.00;2.70;;;;;;;;;;5012612;28;20224;-84
2022/07/12 00:26:53;;;;;;;3.07;2.77;;;;;;;;;;5013378;28;20243;-84
2022/07/12 00:29:22;;;;;;;4.40;2.13;;;;;;;;;;5011691;28;20232;-84
2022/07/12 00:31:47;;;;;;;2.63;2.43;;;;;;;;;;5009616;28;20229;-85
2022/07/12 00:34:13;;;;;;;2.47;2.27;;;;;;;;;;5012144;28;20229;-84
2022/07/12 00:36:43;;;;;;;2.57;2.37;;;;;;;;;;5012753;28;20234;-84
2022/07/12 00:39:08;;;;;;;3.63;3.23;;;;;;;;;;5012710;28;20279;-85
2022/07/12 00:41:34;;;;;;;3.53;3.23;;;;;;;;;;4980780;28;20217;-84
2022/07/12 00:43:59;;;;;;;3.00;2.80;;;;;;;;;;5009966;28;20244;-85
2022/07/12 00:46:27;;;;;;;3.40;3.13;;;;;;;;;;4991461;28;20236;-85
2022/07/12 00:48:53;;;;;;;3.47;3.17;;;;;;;;;;5012322;28;20278;-84
2022/07/12 00:51:19;;;;;;;3.10;2.80;;;;;;;;;;4979880;28;20221;-84
2022/07/12 00:53:46;;;;;;;3.07;2.87;;;;;;;;;;5013782;28;20311;-84
2022/07/12 00:56:12;;;;;;;3.10;2.90;;;;;;;;;;4996104;28;20231;-84
2022/07/12 00:58:40;;;;;;;3.07;2.87;;;;;;;;;;5029305;28;20224;-84
2022/07/12 01:01:06;;;;;;;3.00;2.70;;;;;;;;;;5012760;28;20646;-85
2022/07/12 01:03:31;;;;;;;2.97;2.77;;;;;;;;;;5026883;28;20232;-83
2022/07/12 01:05:59;;;;;;;2.93;2.73;;;;;;;;;;5023147;28;20232;-83
2022/07/12 01:08:25;;;;;;;2.60;2.40;;;;;;;;;;5012425;28;20212;-83
2022/07/12 01:10:50;;;;;;;2.50;2.30;;;;;;;;;;4996613;28;20602;-84
2022/07/12 01:13:18;;;;;;;2.70;2.50;;;;;;;;;;4976877;28;20217;-85
2022/07/12 01:15:47;;;;;;;2.43;2.23;;;;;;;;;;4997496;28;20252;-86
2022/07/12 01:18:12;;;;;;;2.53;2.40;;;;;;;;;;5031483;28;20321;-85
2022/07/12 01:20:40;;;;;;;2.33;2.13;;;;;;;;;;4984129;28;20283;-85
2022/07/12 01:23:06;;;;;;;3.10;2.27;;;;;;;;;;4991099;28;20217;-85
2022/07/12 01:25:33;;;;;;;2.90;2.70;;;;;;;;;;4998423;28;20693;-85
2022/07/12 01:28:01;;;;;;;2.83;2.63;;;;;;;;;;4989156;28;20235;-85
2022/07/12 01:30:29;;;;;;;2.87;2.67;;;;;;;;;;5010006;28;20642;-85
2022/07/12 01:32:54;;;;;;;2.93;2.60;;;;;;;;;;5012512;28;20248;-84
2022/07/12 01:35:20;;;;;;;3.17;2.70;;;;;;;;;;5013550;28;20709;-85
2022/07/12 01:37:46;;;;;;;2.60;2.43;;;;;;;;;;4997004;28;20229;-85
2022/07/12 01:40:13;;;;;;;2.90;2.70;;;;;;;;;;5015961;28;20221;-85
2022/07/12 01:42:38;;;;;;;3.10;2.90;;;;;;;;;;4976576;28;20268;-84
2022/07/12 01:45:07;;;;;;;3.30;3.10;;;;;;;;;;4986158;28;20687;-84
2022/07/12 01:47:35;;;;;;;3.70;3.40;;;;;;;;;;5027942;28;20255;-84
2022/07/12 01:50:01;;;;;;;3.53;3.23;;;;;;;;;;4975742;28;20236;-85
2022/07/12 01:53:07;;;;;;;4.30;3.70;;;;;;;;;;4997505;28;20221;-84
2022/07/12 01:55:33;;;;;;;4.63;4.23;;;;;;;;;;5012937;28;20722;-85
2022/07/12 01:57:58;;;;;;;6.93;4.70;;;;;;;;;;4993766;28;20221;-85
2022/07/12 02:00:28;;;;;;;13.60;4.93;;;;;;;;;;4992821;28;20225;-84
2022/07/12 02:03:11;;;;;;;13.10;5.00;;;;;;;;;;5032818;28;20284;-83
2022/07/12 02:05:37;;;;;;;15.00;5.13;;;;;;;;;;5000365;28;20225;-84
2022/07/12 02:08:06;;;;;;;19.37;4.57;;;;;;;;;;4990230;28;20659;-83
2022/07/12 02:10:33;;;;;;;11.30;4.90;;;;;;;;;;4998208;28;20705;-84
2022/07/12 02:13:03;;;;;;;9.27;5.00;;;;;;;;;;5032960;28;20240;-85
2022/07/12 02:15:28;;;;;;;5.17;4.77;;;;;;;;;;5031246;28;20216;-83
2022/07/12 02:17:54;;;;;;;5.03;4.63;;;;;;;;;;4976867;28;20221;-83
2022/07/12 02:20:22;;;;;;;6.07;4.57;;;;;;;;;;5015999;28;20282;-83
2022/07/12 02:22:47;;;;;;;5.63;4.93;;;;;;;;;;5020091;28;20221;-83
2022/07/12 02:25:15;;;;;;;6.00;5.50;;;;;;;;;;5034746;28;20236;-84
2022/07/12 02:27:42;;;;;;;5.57;5.07;;;;;;;;;;4992608;28;20694;-84
2022/07/12 02:30:08;;;;;;;8.97;5.80;;;;;;;;;;4989873;23;20298;-73
2022/07/12 02:32:34;;;;;;;6.23;5.63;;;;;;;;;;4980720;28;20268;-73
2022/07/12 02:35:00;;;;;;;6.27;5.77;;;;;;;;;;4977572;28;20305;-73
2022/07/12 02:37:30;;;;;;;7.07;5.70;;;;;;;;;;5002930;28;20217;-73
2022/07/12 02:40:53;;;;;;;5.90;5.40;;;;;;;;;;4987957;28;20225;-73
2022/07/12 02:42:45;;;;;;;6.63;5.17;;;;;;;;;;4997816;28;20587;-73
2022/07/12 02:45:11;;;;;;;10.03;4.97;;;;;;;;;;4985738;28;20625;-73
2022/07/12 02:47:41;;;;;;;14.73;5.93;;;;;;;;;;5001309;28;20221;-73
2022/07/12 02:50:09;;;;;;;10.63;5.20;;;;;;;;;;5003222;28;20221;-73
2022/07/12 02:52:39;;;;;;;20.30;5.67;;;;;;;;;;4982499;28;20235;-72
2022/07/12 02:55:07;;;;;;;14.20;5.10;;;;;;;;;;4975841;28;20237;-72
2022/07/12 02:57:35;;;;;;;5.03;4.40;;;;;;;;;;4986059;28;20283;-74
2022/07/12 03:00:01;;;;;;;6.33;3.83;;;;;;;;;;4994776;28;20222;-75
2022/07/12 03:02:28;;;;;;;4.97;4.57;;;;;;;;;;4993497;28;20280;-74
2022/07/12 03:04:54;;;;;;;4.70;4.30;;;;;;;;;;4995222;28;20315;-74
2022/07/12 03:07:22;;;;;;;4.37;4.03;;;;;;;;;;4986667;28;20224;-75
2022/07/12 03:09:48;;;;;;;4.80;4.40;;;;;;;;;;4991518;28;20229;-75
2022/07/12 03:12:16;;;;;;;4.43;3.67;;;;;;;;;;4997639;28;20714;-74
2022/07/12 03:14:42;;;;;;;4.63;4.23;;;;;;;;;;4991754;28;20309;-73
2022/07/12 03:17:08;;;;;;;4.20;3.90;;;;;;;;;;4962364;28;20221;-74
2022/07/12 03:19:33;;;;;;;3.87;3.60;;;;;;;;;;4999819;28;20609;-73
2022/07/12 03:22:01;;;;;;;3.70;3.40;;;;;;;;;;4997553;28;20742;-74
2022/07/12 03:24:29;;;;;;;4.10;3.80;;;;;;;;;;5010261;28;20229;-74
2022/07/12 03:26:59;;;;;;;3.73;3.43;;;;;;;;;;4997293;28;20229;-74
2022/07/12 03:29:27;;;;;;;4.07;3.77;;;;;;;;;;4998941;28;20703;-74
2022/07/12 03:31:52;;;;;;;3.77;3.47;;;;;;;;;;4988986;28;20225;-74
2022/07/12 03:34:18;;;;;;;3.80;3.50;;;;;;;;;;4978907;28;20233;-74
2022/07/12 03:36:43;;;;;;;3.50;3.20;;;;;;;;;;4991854;28;20225;-74
2022/07/12 03:39:11;;;;;;;3.47;3.27;;;;;;;;;;4978644;28;20228;-74
2022/07/12 03:41:40;;;;;;;3.53;3.23;;;;;;;;;;4991148;28;20220;-74
2022/07/12 03:44:09;;;;;;;3.67;3.47;;;;;;;;;;4996130;28;20229;-75
2022/07/12 03:46:40;;;;;;;3.83;3.53;;;;;;;;;;4998194;28;20714;-74
2022/07/12 03:49:07;;;;;;;3.57;3.27;;;;;;;;;;4978982;28;20599;-74
2022/07/12 03:51:35;;;;;;;3.43;3.13;;;;;;;;;;5007492;28;20243;-75
2022/07/12 03:54:07;;;;;;;3.50;3.20;;;;;;;;;;4990017;28;20228;-74
2022/07/12 03:57:22;;;;;;;3.37;3.07;;;;;;;;;;4985558;28;20225;-74
2022/07/12 03:59:23;;;;;;;3.37;3.10;;;;;;;;;;4989949;28;20248;-74
2022/07/12 04:01:51;;;;;;;3.33;3.13;;;;;;;;;;4981724;28;20229;-74
2022/07/12 04:04:16;;;;;;;3.50;3.20;;;;;;;;;;4995941;28;20255;-74
2022/07/12 04:06:42;;;;;;;3.90;3.60;;;;;;;;;;4983815;28;20712;-74
2022/07/12 04:09:07;;;;;;;4.00;3.70;;;;;;;;;;5009860;28;20229;-74
2022/07/12 04:11:35;;;;;;;4.00;3.70;;;;;;;;;;4990303;28;20315;-75
2022/07/12 04:14:03;;;;;;;3.83;3.53;;;;;;;;;;4976727;28;20711;-75
2022/07/12 04:16:29;;;;;;;4.03;3.73;;;;;;;;;;4997006;28;20224;-75
2022/07/12 04:18:55;;;;;;;3.70;3.40;;;;;;;;;;4989394;28;20213;-75
2022/07/12 04:21:23;;;;;;;4.17;3.70;;;;;;;;;;5002265;28;20592;-75
2022/07/12 04:23:53;;;;;;;4.00;3.70;;;;;;;;;;4978411;28;20221;-75
2022/07/12 04:26:18;;;;;;;3.83;3.53;;;;;;;;;;4993598;28;20229;-74
2022/07/12 04:28:44;;;;;;;5.33;4.83;;;;;;;;;;4987122;28;20263;-75
2022/07/12 04:31:09;;;;;;;4.70;4.30;;;;;;;;;;4997656;28;20250;-74
2022/07/12 04:33:35;;;;;;;4.67;4.33;;;;;;;;;;4964852;28;20734;-76
2022/07/12 04:36:03;;;;;;;5.73;5.33;;;;;;;;;;4976866;28;20229;-76
2022/07/12 04:38:28;;;;;;;5.33;4.93;;;;;;;;;;4994065;28;20605;-75
2022/07/12 04:40:54;;;;;;;5.20;4.70;;;;;;;;;;4995823;28;20275;-75
2022/07/12 04:43:24;;;;;;;5.17;4.43;;;;;;;;;;4977781;28;20266;-75
2022/07/12 04:45:52;;;;;;;4.83;4.33;;;;;;;;;;4980823;28;20221;-75
2022/07/12 04:48:17;;;;;;;4.73;4.33;;;;;;;;;;4984938;28;20859;-74
2022/07/12 04:50:45;;;;;;;4.27;3.97;;;;;;;;;;4990024;28;20225;-74
2022/07/12 04:53:11;;;;;;;4.40;4.00;;;;;;;;;;4970824;28;20280;-72
2022/07/12 04:55:39;;;;;;;5.07;4.57;;;;;;;;;;4990179;28;20703;-74
2022/07/12 04:58:04;;;;;;;4.57;4.18;;;;;;;;;;4988196;28;21118;-74
2022/07/12 05:00:32;;;;;;;5.50;4.38;;;;;;;;;;4965029;28;20229;-74
2022/07/12 05:03:02;;;;;;;4.43;4.03;;;;;;;;;;5005844;28;20243;-76
2022/07/12 05:05:28;;;;;;;6.05;4.20;;;;;;;;;;4976856;28;20610;-75
2022/07/12 05:07:53;;;;;;;4.60;4.20;;;;;;;;;;4993852;28;20221;-76
2022/07/12 05:10:19;;;;;;;3.78;3.47;;;;;;;;;;4994396;28;20850;-75
2022/07/12 05:12:44;;;;;;;3.80;3.42;;;;;;;;;;4970111;28;20222;-75
2022/07/12 05:15:10;;;;;;;4.65;4.25;;;;;;;;;;4974162;28;20239;-73
2022/07/12 05:17:38;;;;;;;5.73;4.40;;;;;;;;;;4977491;28;20232;-74
2022/07/12 05:20:04;;;;;;;4.90;4.50;;;;;;;;;;4964857;28;20253;-75
2022/07/12 05:25:21;;;;;;;5.30;4.90;;;;;;;;;;5118574;23;20233;-72
2022/07/12 05:27:52;;;;;;;5.03;4.63;;;;;;;;;;4950388;28;20338;-73
2022/07/12 05:30:18;;;;;;;5.18;4.68;;;;;;;;;;4954746;28;20320;-74
2022/07/12 05:32:43;;;;;;;5.70;5.05;;;;;;;;;;4949539;28;20218;-75
2022/07/12 05:35:09;;;;;;;4.90;4.47;;;;;;;;;;4928966;28;20624;-74
2022/07/12 05:37:37;;;;;;;5.50;5.00;;;;;;;;;;4969648;28;20258;-71
2022/07/12 05:40:03;;;;;;;5.50;4.72;;;;;;;;;;4967871;28;20265;-72
2022/07/12 05:42:29;;;;;;;4.60;4.20;;;;;;;;;;4948880;28;20218;-73
2022/07/12 05:44:57;;;;;;;6.07;4.45;;;;;;;;;;4970259;28;20743;-74
2022/07/12 05:50:11;;;;;;;4.50;4.10;;;;;;;;;;4949455;23;20230;-87
2022/07/12 05:55:23;;;;;;;3.17;2.92;;;;;;;;;;4915813;29;20227;-86
2022/07/12 05:57:51;;;;;;;3.63;3.03;;;;;;;;;;4925607;29;20608;-85
2022/07/12 06:00:16;;;;;;;4.25;3.85;;;;;;;;;;4895014;29;20306;-88
2022/07/12 06:02:42;;;;;;;3.65;3.35;;;;;;;;;;4896405;29;20259;-87
2022/07/12 06:05:10;;;;;;;3.55;2.80;;;;;;;;;;4896589;29;20498;-84
2022/07/12 06:07:36;;;;;;;2.97;2.20;;;;;;;;;;4908216;29;20223;-87
2022/07/12 06:10:01;;;;;;;3.10;2.22;;;;;;;;;;4915432;29;20607;-85
2022/07/12 06:12:27;;;;;;;2.42;2.13;;;;;;;;;;4909327;29;20232;-87
2022/07/12 06:14:55;;;;;;;1.98;1.80;;;;;;;;;;4894405;29;20231;-85
2022/07/12 06:17:22;;;;;;;3.50;2.28;;;;;;;;;;4916039;28;20218;-85
2022/07/12 06:19:50;;;;;;;2.05;1.67;;;;;;;;;;4928670;29;20254;-84
2022/07/12 06:22:15;;;;;;;2.00;1.83;;;;;;;;;;4905854;29;20247;-85
2022/07/12 06:24:41;;;;;;;2.30;1.85;;;;;;;;;;4894912;29;20654;-85
2022/07/12 06:27:06;;;;;;;1.80;1.70;;;;;;;;;;4888035;29;20227;-86
2022/07/12 06:29:32;;;;;;;2.10;1.90;;;;;;;;;;4925960;29;20211;-86
2022/07/12 06:31:57;;;;;;;2.25;1.60;;;;;;;;;;4891181;29;20220;-84
2022/07/12 06:34:25;;;;;;;1.70;1.60;;;;;;;;;;4925192;29;20801;-86
2022/07/12 06:36:51;;;;;;;1.85;1.75;;;;;;;;;;4903688;29;20296;-86
2022/07/12 06:39:17;;;;;;;1.98;1.50;;;;;;;;;;4925122;28;20210;-85
2022/07/12 06:41:45;;;;;;;1.70;1.40;;;;;;;;;;4918231;23;20228;-74
2022/07/12 06:44:11;;;;;;;1.60;1.50;;;;;;;;;;4955683;23;20232;-74
2022/07/12 06:46:55;;;;;;;1.85;1.52;;;;;;;;;;4862191;29;20273;-73
2022/07/12 06:49:23;;;;;;;1.60;1.50;;;;;;;;;;4894660;24;20232;-86
2022/07/12 06:51:49;;;;;;;1.92;1.50;;;;;;;;;;4852899;29;20236;-87
2022/07/12 06:54:40;;;;;;;2.17;1.60;;;;;;;;;;4869625;29;20227;-86
2022/07/12 06:57:05;;;;;;;1.80;1.60;;;;;;;;;;4858782;29;20359;-86
2022/07/12 06:59:33;;;;;;;2.97;1.70;;;;;;;;;;4838156;29;20237;-86
2022/07/12 07:02:01;;;;;;;2.20;1.70;;;;;;;;;;4859147;29;20232;-86
2022/07/12 07:04:27;;;;;;;1.77;1.48;;;;;;;;;;4872281;29;20234;-86
2022/07/12 07:06:52;;;;;;;2.05;1.70;;;;;;;;;;4853404;29;20229;-85
2022/07/12 07:09:21;;;;;;;1.70;1.60;;;;;;;;;;4868025;29;20346;-86
2022/07/12 07:11:46;;;;;;;2.58;1.50;;;;;;;;;;4850114;29;20230;-85
2022/07/12 07:14:12;;;;;;;1.85;1.50;;;;;;;;;;4844541;29;20933;-80
2022/07/12 07:16:37;;;;;;;1.95;1.60;;;;;;;;;;4872662;29;20233;-79
2022/07/12 07:19:03;;;;;;;1.70;1.60;;;;;;;;;;4839709;29;20226;-82
2022/07/12 07:21:29;;;;;;;1.98;1.83;;;;;;;;;;4858054;29;20592;-80
2022/07/12 07:23:55;;;;;;;2.42;1.70;;;;;;;;;;4825444;29;20237;-79
2022/07/12 07:26:23;;;;;;;1.50;1.40;;;;;;;;;;4841725;29;20271;-79
2022/07/12 07:32:02;;;;;;;1.55;1.45;;;;;;;;;;4876869;29;20712;-74
2022/07/12 07:34:28;;;;;;;1.92;1.40;;;;;;;;;;4864165;29;20244;-74
2022/07/12 07:36:54;;;;;;;2.25;1.75;;;;;;;;;;4845743;29;20233;-74
2022/07/12 07:39:20;;;;;;;2.40;1.35;;;;;;;;;;4842917;29;20230;-74
2022/07/12 07:41:45;;;;;;;1.50;1.40;;;;;;;;;;4848423;29;20619;-75
2022/07/12 07:44:11;;;;;;;3.45;1.65;;;;;;;;;;4860440;29;20260;-76
2022/07/12 07:46:36;;;;;;;1.60;1.45;;;;;;;;;;4851577;29;20259;-75
2022/07/12 07:49:02;;;;;;;1.50;1.40;;;;;;;;;;4877359;29;20229;-76
2022/07/12 07:51:30;;;;;;;2.88;1.80;;;;;;;;;;4849238;29;20233;-75
2022/07/12 07:54:02;;;;;;;7.35;1.85;;;;;;;;;;4862503;29;20237;-75
2022/07/12 07:56:28;;;;;;;2.35;1.70;;;;;;;;;;4830622;29;20233;-75
2022/07/12 07:58:54;;;;;;;2.10;1.70;;;;;;;;;;4876576;29;20696;-75
2022/07/12 08:01:19;;;;;;;1.50;1.40;;;;;;;;;;4859865;29;20588;-75
2022/07/12 08:03:47;;;;;;;2.78;1.60;;;;;;;;;;4855793;29;20237;-74
2022/07/12 08:06:15;;;;;;;1.73;1.60;;;;;;;;;;4875192;29;20643;-76
2022/07/12 08:08:40;;;;;;;1.65;1.55;;;;;;;;;;4859884;29;20229;-75
2022/07/12 08:11:09;;;;;;;2.30;1.90;;;;;;;;;;4874287;29;20236;-74
2022/07/12 08:13:34;;;;;;;3.33;1.90;;;;;;;;;;4857475;29;20244;-75
2022/07/12 08:16:04;;;;;;;1.90;1.80;;;;;;;;;;4858376;29;20225;-75
2022/07/12 08:18:30;;;;;;;2.70;1.85;;;;;;;;;;4857859;29;20232;-75
2022/07/12 08:20:55;;;;;;;1.70;1.60;;;;;;;;;;4843597;29;20226;-75
2022/07/12 08:23:21;;;;;;;2.28;1.83;;;;;;;;;;4858019;29;20689;-76
2022/07/12 08:25:47;;;;;;;1.80;1.70;;;;;;;;;;4859764;29;20611;-75
2022/07/12 08:28:12;;;;;;;1.80;1.70;;;;;;;;;;4846114;29;20608;-76
2022/07/12 08:30:38;;;;;;;3.53;2.08;;;;;;;;;;4879579;29;20268;-75
2022/07/12 08:33:04;;;;;;;3.03;2.30;;;;;;;;;;4876069;29;20231;-74
2022/07/12 08:35:29;;;;;;;1.95;1.85;;;;;;;;;;4835661;29;20303;-75
2022/07/12 08:37:57;;;;;;;2.00;1.80;;;;;;;;;;4844215;29;20229;-73
2022/07/12 08:40:25;;;;;;;2.90;1.75;;;;;;;;;;4837133;29;20916;-75
2022/07/12 08:42:50;;;;;;;2.10;1.88;;;;;;;;;;4873529;29;20225;-76
2022/07/12 08:45:16;;;;;;;1.60;1.50;;;;;;;;;;4856568;29;20287;-78
2022/07/12 08:47:44;;;;;;;1.83;1.50;;;;;;;;;;4855806;29;20245;-76
2022/07/12 08:50:19;;;;;;;1.60;1.50;;;;;;;;;;4856832;29;20222;-76
2022/07/12 08:52:49;;;;;;;1.75;1.52;;;;;;;;;;4859729;29;20248;-75
2022/07/12 08:55:24;;;;;;;1.77;1.67;;;;;;;;;;4854703;29;20233;-76
2022/07/12 08:58:09;;;;;;;1.88;1.55;;;;;;;;;;4873737;29;20227;-76
2022/07/12 09:00:34;;;;;;;1.50;1.40;;;;;;;;;;4874685;29;20701;-76
2022/07/12 09:03:18;;;;;;;2.00;1.35;;;;;;;;;;4862610;29;20776;-77
2022/07/12 09:05:51;;;;;;;1.70;1.45;;;;;;;;;;4861011;29;20316;-76
2022/07/12 09:08:33;;;;;;;3.30;1.55;;;;;;;;;;4862563;29;20256;-76
2022/07/12 09:11:00;;;;;;;1.50;1.40;;;;;;;;;;4859362;29;20240;-75
2022/07/12 09:13:55;;;;;;;2.40;1.50;;;;;;;;;;4838040;29;20236;-76
2022/07/12 09:16:24;;;;;;;2.53;1.15;;;;;;;;;;4857919;29;20899;-75
2022/07/12 09:18:50;;;;;;;1.70;1.52;;;;;;;;;;4874314;29;20230;-76
2022/07/12 09:24:17;;;;;;;1.40;1.30;;;;;;;;;;4869889;29;20238;-76
2022/07/12 09:26:43;;;;;;;1.45;1.35;;;;;;;;;;4856623;29;20225;-76
2022/07/12 09:29:18;;;;;;;1.55;1.45;;;;;;;;;;4851434;29;20217;-74
2022/07/12 09:37:18;;;;;;;1.38;1.30;;;;;;;;;;4860348;29;20225;-76
2022/07/12 09:39:43;;;;;;;1.63;1.52;;;;;;;;;;4856634;29;20778;-75
2022/07/12 09:42:12;;;;;;;1.90;1.80;;;;;;;;;;4857020;29;20226;-78
2022/07/12 09:44:41;;;;;;;1.70;1.60;;;;;;;;;;4845514;29;20267;-78
2022/07/12 09:47:15;;;;;;;2.78;1.90;;;;;;;;;;4858579;29;20248;-76
2022/07/12 09:49:44;;;;;;;1.75;1.65;;;;;;;;;;4858988;29;20735;-77
2022/07/12 09:52:17;;;;;;;2.40;1.92;;;;;;;;;;4872663;29;20567;-76
2022/07/12 09:54:45;;;;;;;1.90;1.80;;;;;;;;;;4872882;29;20324;-75
2022/07/12 09:57:17;;;;;;;1.95;1.85;;;;;;;;;;4857960;29;20665;-75
2022/07/12 09:59:45;;;;;;;1.98;1.88;;;;;;;;;;4857337;29;20229;-75
2022/07/12 10:02:15;;;;;;;1.92;1.65;;;;;;;;;;4873487;29;20221;-76
2022/07/12 10:04:41;;;;;;;1.63;1.50;;;;;;;;;;4861525;29;20309;-75
2022/07/12 10:07:13;;;;;;;1.60;1.50;;;;;;;;;;4843518;29;20307;-75
2022/07/12 10:09:40;;;;;;;3.92;1.90;;;;;;;;;;4842370;29;20230;-75
2022/07/12 10:12:08;;;;;;;1.80;1.70;;;;;;;;;;4841975;29;20797;-73
2022/07/12 10:14:34;;;;;;;1.90;1.65;;;;;;;;;;4857575;29;20237;-75
2022/07/12 10:16:59;;;;;;;2.22;1.60;;;;;;;;;;4860519;29;20277;-76
2022/07/12 10:20:02;;;;;;;2.28;1.83;;;;;;;;;;4841479;29;20226;-75
2022/07/12 10:22:28;;;;;;;2.15;1.60;;;;;;;;;;4873700;29;20707;-75
2022/07/12 10:24:56;;;;;;;2.10;1.90;;;;;;;;;;4879704;29;20237;-75
2022/07/12 10:27:23;;;;;;;1.90;1.80;;;;;;;;;;4865785;29;20280;-76
2022/07/12 10:32:35;;;;;;;2.00;1.90;;;;;;;;;;4863388;29;20300;-76
2022/07/12 10:35:05;;;;;;;2.05;1.90;;;;;;;;;;4862703;29;20870;-75
2022/07/12 10:37:34;;;;;;;1.70;1.60;;;;;;;;;;4861968;29;20229;-76
2022/07/12 10:40:15;;;;;;;1.92;1.83;;;;;;;;;;4845666;29;20308;-75
2022/07/12 10:43:07;;;;;;;3.65;2.10;;;;;;;;;;4843553;29;20320;-75
2022/07/12 10:45:33;;;;;;;2.10;2.00;;;;;;;;;;4858015;29;20696;-75
2022/07/12 10:48:14;;;;;;;2.22;2.03;;;;;;;;;;4875236;29;20309;-75
2022/07/12 10:51:12;;;;;;;2.08;1.80;;;;;;;;;;4880446;29;20631;-73
2022/07/12 10:53:59;;;;;;;2.00;1.90;;;;;;;;;;4865250;29;20796;-74
2022/07/12 10:56:31;;;;;;;1.80;1.70;;;;;;;;;;4856783;29;20226;-75
2022/07/12 10:59:00;;;;;;;1.88;1.77;;;;;;;;;;4860618;29;20230;-73
2022/07/12 11:01:45;;;;;;;1.92;1.67;;;;;;;;;;4861141;29;20862;-73
2022/07/12 11:04:11;;;;;;;1.70;1.60;;;;;;;;;;4875753;29;20578;-76
2022/07/12 11:06:40;;;;;;;1.55;1.45;;;;;;;;;;4859454;29;20285;-77
2022/07/12 11:09:14;;;;;;;2.05;1.75;;;;;;;;;;4846943;29;20266;-75
2022/07/12 11:11:50;;;;;;;2.13;1.60;;;;;;;;;;4860101;29;20237;-76
2022/07/12 11:14:32;;;;;;;1.70;1.60;;;;;;;;;;4859815;29;20313;-77
2022/07/12 11:16:59;;;;;;;1.92;1.83;;;;;;;;;;4860128;29;20249;-77
2022/07/12 11:19:33;;;;;;;1.50;1.40;;;;;;;;;;4839755;29;20232;-75
2022/07/12 11:22:01;;;;;;;2.03;1.88;;;;;;;;;;4880332;29;20320;-77
2022/07/12 11:24:27;;;;;;;1.75;1.65;;;;;;;;;;4884264;29;20244;-77
2022/07/12 11:26:55;;;;;;;1.90;1.80;;;;;;;;;;4874637;29;20721;-77
2022/07/12 11:29:25;;;;;;;1.70;1.60;;;;;;;;;;4857933;29;20320;-75
2022/07/12 11:32:05;;;;;;;1.65;1.55;;;;;;;;;;4878257;29;20257;-76
2022/07/12 11:34:34;;;;;;;1.70;1.60;;;;;;;;;;4853555;29;20658;-77
2022/07/12 11:37:03;;;;;;;2.13;1.80;;;;;;;;;;4874577;29;20289;-77
2022/07/12 11:39:32;;;;;;;1.80;1.70;;;;;;;;;;4879977;29;20229;-76
2022/07/12 11:42:01;;;;;;;1.95;1.50;;;;;;;;;;4869140;29;20312;-77
2022/07/12 11:44:50;;;;;;;1.75;1.60;;;;;;;;;;4877942;29;20237;-77
2022/07/12 11:47:19;;;;;;;1.63;1.52;;;;;;;;;;4876797;29;20236;-76
2022/07/12 11:49:48;;;;;;;2.70;1.60;;;;;;;;;;4876531;29;20269;-76
2022/07/12 11:52:18;;;;;;;1.60;1.50;;;;;;;;;;4862053;29;20477;-75
2022/07/12 11:54:44;;;;;;;2.38;2.03;;;;;;;;;;4861365;29;20232;-76
2022/07/12 11:57:12;;;;;;;1.77;1.67;;;;;;;;;;4878764;29;20272;-77
2022/07/12 11:59:41;;;;;;;1.70;1.60;;;;;;;;;;4856132;29;20222;-77
2022/07/12 12:02:11;;;;;;;1.85;1.75;;;;;;;;;;4851177;29;20241;-78
2022/07/12 12:04:50;;;;;;;3.30;1.60;;;;;;;;;;4852871;29;20241;-78
2022/07/12 12:07:37;;;;;;;1.70;1.60;;;;;;;;;;4845207;29;20239;-76
2022/07/12 12:10:21;;;;;;;1.90;1.80;;;;;;;;;;4866735;29;20240;-78
2022/07/12 12:12:53;;;;;;;2.00;1.90;;;;;;;;;;4852194;29;20285;-78
2022/07/12 12:15:18;;;;;;;2.35;1.95;;;;;;;;;;4877139;29;20230;-78
2022/07/12 12:18:04;;;;;;;2.33;1.60;;;;;;;;;;4877450;29;20245;-76
2022/07/12 12:20:32;;;;;;;1.90;1.80;;;;;;;;;;4845332;29;20233;-76
2022/07/12 12:25:51;;;;;;;2.42;1.90;;;;;;;;;;4643389;26;20239;-77
2022/07/12 12:28:22;;;;;;;2.33;1.90;;;;;;;;;;4879222;29;20240;-78
2022/07/12 12:30:55;;;;;;;2.03;1.90;;;;;;;;;;4878569;29;20237;-77
2022/07/12 12:33:40;;;;;;;1.70;1.60;;;;;;;;;;4907119;29;20221;-77
2022/07/12 12:36:28;;;;;;;2.75;1.88;;;;;;;;;;4885687;29;20232;-76
2022/07/12 12:38:58;;;;;;;2.97;2.20;;;;;;;;;;4893531;29;20218;-77
2022/07/12 12:41:27;;;;;;;2.30;2.20;;;;;;;;;;4860619;29;20225;-76
2022/07/12 12:44:01;;;;;;;2.28;2.17;;;;;;;;;;4892884;29;20239;-78
2022/07/12 12:46:47;;;;;;;2.50;2.30;;;;;;;;;;4893571;29;20991;-77
2022/07/12 12:49:16;;;;;;;2.60;2.40;;;;;;;;;;4894374;29;20341;-77
2022/07/12 12:52:02;;;;;;;2.20;2.10;;;;;;;;;;4881129;29;20236;-78
2022/07/12 12:54:32;;;;;;;3.58;2.67;;;;;;;;;;4871720;29;20229;-76
2022/07/12 12:57:02;;;;;;;2.40;2.20;;;;;;;;;;4896532;29;20308;-77
2022/07/12 12:59:28;;;;;;;2.00;1.90;;;;;;;;;;4889372;29;20232;-75
2022/07/12 13:01:53;;;;;;;2.10;1.95;;;;;;;;;;4873770;29;20292;-76
2022/07/12 13:04:21;;;;;;;1.98;1.88;;;;;;;;;;4893437;29;20977;-74
2022/07/12 13:06:47;;;;;;;2.00;1.90;;;;;;;;;;4893492;29;20368;-77
2022/07/12 13:09:14;;;;;;;1.80;1.70;;;;;;;;;;4894671;29;20726;-77
2022/07/12 13:11:40;;;;;;;2.17;1.80;;;;;;;;;;4893453;29;20479;-76
2022/07/12 13:14:08;;;;;;;1.70;1.60;;;;;;;;;;4883855;29;20237;-77
2022/07/12 13:16:36;;;;;;;2.22;1.70;;;;;;;;;;4909214;29;20298;-77
2022/07/12 13:19:05;;;;;;;1.92;1.83;;;;;;;;;;4875636;29;20221;-78
2022/07/12 13:21:30;;;;;;;2.25;1.83;;;;;;;;;;4891084;29;20243;-79
2022/07/12 13:24:17;;;;;;;2.35;2.10;;;;;;;;;;4904844;29;20241;-78
2022/07/12 13:26:47;;;;;;;3.30;2.10;;;;;;;;;;4879046;29;20237;-78
2022/07/12 13:29:13;;;;;;;2.45;2.25;;;;;;;;;;4865936;29;20229;-78
2022/07/12 13:31:39;;;;;;;2.38;2.13;;;;;;;;;;4872187;29;20217;-78
2022/07/12 13:34:05;;;;;;;1.90;1.73;;;;;;;;;;4875611;29;20240;-78
2022/07/12 13:36:33;;;;;;;2.20;1.98;;;;;;;;;;4878140;29;20224;-78
2022/07/12 13:40:10;;;;;;;2.05;1.80;;;;;;;;;;4901839;29;20232;-76
2022/07/12 13:41:44;;;;;;;2.42;2.30;;;;;;;;;;4900250;29;20229;-78
2022/07/12 13:44:10;;;;;;;2.47;2.28;;;;;;;;;;4889161;29;20248;-76
2022/07/12 13:46:36;;;;;;;1.92;1.83;;;;;;;;;;4876764;29;20223;-73
2022/07/12 13:49:01;;;;;;;2.40;2.30;;;;;;;;;;4875713;29;20233;-75
2022/07/12 13:51:27;;;;;;;2.53;2.38;;;;;;;;;;4849398;29;20221;-74
2022/07/12 13:53:52;;;;;;;2.50;2.30;;;;;;;;;;4890519;29;20648;-76
2022/07/12 13:56:20;;;;;;;2.28;2.17;;;;;;;;;;4876179;29;20220;-77
2022/07/12 13:58:46;;;;;;;2.63;2.53;;;;;;;;;;4877697;29;20329;-74
2022/07/12 14:01:11;;;;;;;2.40;2.30;;;;;;;;;;4859259;29;20225;-74
2022/07/12 14:03:37;;;;;;;3.00;2.42;;;;;;;;;;4871536;29;20245;-73
2022/07/12 14:06:02;;;;;;;2.50;2.30;;;;;;;;;;4863861;29;20253;-75
2022/07/12 14:08:50;;;;;;;2.30;2.20;;;;;;;;;;4876856;29;20224;-75
2022/07/12 14:11:34;;;;;;;3.53;2.28;;;;;;;;;;4872307;29;20683;-74
2022/07/12 14:13:59;;;;;;;2.40;2.30;;;;;;;;;;4858331;29;20249;-75
2022/07/12 14:16:27;;;;;;;3.78;2.10;;;;;;;;;;4871868;29;20358;-77
2022/07/12 14:18:57;;;;;;;2.22;2.03;;;;;;;;;;4884614;29;20217;-74
2022/07/12 14:21:23;;;;;;;2.75;2.42;;;;;;;;;;4877788;29;20224;-75
2022/07/12 14:23:48;;;;;;;2.50;2.05;;;;;;;;;;4875049;29;20243;-76
2022/07/12 14:26:14;;;;;;;2.72;2.30;;;;;;;;;;4878820;29;20234;-76
2022/07/12 14:28:40;;;;;;;2.10;2.00;;;;;;;;;;4886740;29;20225;-74
2022/07/12 14:31:42;;;;;;;2.13;2.00;;;;;;;;;;4890999;29;20239;-75
2022/07/12 14:34:08;;;;;;;2.40;2.30;;;;;;;;;;4891264;29;20275;-75
2022/07/12 14:36:33;;;;;;;2.58;2.40;;;;;;;;;;4860066;29;20225;-77
2022/07/12 14:39:01;;;;;;;2.42;2.20;;;;;;;;;;4859230;29;20275;-75
2022/07/12 14:41:27;;;;;;;2.42;2.22;;;;;;;;;;4889681;29;20237;-77
2022/07/12 14:43:55;;;;;;;2.25;2.05;;;;;;;;;;4875216;29;20217;-76
2022/07/12 14:46:20;;;;;;;5.30;2.13;;;;;;;;;;4852254;29;20296;-76
2022/07/12 14:48:46;;;;;;;2.10;2.00;;;;;;;;;;4860694;29;20240;-77
2022/07/12 14:51:14;;;;;;;2.42;2.22;;;;;;;;;;4872306;29;20252;-75
2022/07/12 14:53:39;;;;;;;2.30;2.20;;;;;;;;;;4860505;29;20256;-77
2022/07/12 14:58:49;;;;;;;3.03;2.20;;;;;;;;;;4882529;29;20696;-75
2022/07/12 15:01:15;;;;;;;2.60;2.40;;;;;;;;;;4872960;29;20229;-76
2022/07/12 15:03:40;;;;;;;4.00;2.35;;;;;;;;;;4877487;29;20245;-76
2022/07/12 15:09:11;;;;;;;2.75;2.50;;;;;;;;;;4877602;29;20667;-76
2022/07/12 15:11:39;;;;;;;2.33;2.08;;;;;;;;;;4895745;29;20250;-75
2022/07/12 15:14:05;;;;;;;2.78;2.00;;;;;;;;;;4873446;29;20300;-75
2022/07/12 15:16:49;;;;;;;2.03;1.90;;;;;;;;;;4865669;29;20228;-75
2022/07/12 15:19:35;;;;;;;4.43;2.10;;;;;;;;;;4879513;29;20220;-74
2022/07/12 15:22:03;;;;;;;2.17;2.00;;;;;;;;;;4885398;29;20228;-76
2022/07/12 15:24:50;;;;;;;2.13;2.00;;;;;;;;;;4884242;29;20244;-76
2022/07/12 15:30:00;;;;;;;2.42;2.22;;;;;;;;;;4872171;29;20839;-75